createdAt,value
2023-04-03T00:00:51.128Z,101692.78
2023-04-03T00:02:52.727Z,101696.19
2023-04-03T00:04:54.194Z,101701.84
2023-04-03T00:06:55.753Z,101692.25
2023-04-03T00:08:57.159Z,101707.50
2023-04-03T00:10:58.587Z,101708.25
2023-04-03T00:13:00.398Z,101705.56
2023-04-03T00:15:01.881Z,101705.13
2023-04-03T00:17:03.373Z,101712.84
2023-04-03T00:19:04.950Z,101718.13
2023-04-03T00:21:07.000Z,101713.34
2023-04-03T00:23:08.457Z,101712.44
2023-04-03T00:25:10.415Z,101715.53
2023-04-03T00:27:11.859Z,101711.34
2023-04-03T00:29:13.320Z,101710.44
2023-04-03T00:31:17.763Z,101696.84
2023-04-03T00:33:19.904Z,101699.13
2023-04-03T00:35:23.062Z,101708.34
2023-04-03T00:37:24.715Z,101726.59
2023-04-03T00:39:26.263Z,101720.22
2023-04-03T00:41:27.702Z,101729.31
2023-04-03T00:43:29.758Z,101725.63
2023-04-03T00:45:35.509Z,101714.81
2023-04-03T00:47:37.428Z,101723.25
2023-04-03T00:49:41.460Z,101724.81
2023-04-03T00:51:43.394Z,101733.50
2023-04-03T00:53:50.399Z,101718.69
2023-04-03T00:55:53.707Z,101698.94
2023-04-03T00:57:56.329Z,101725.09
2023-04-03T01:00:05.741Z,101725.47
2023-04-03T01:02:07.561Z,101710.72
2023-04-03T01:04:27.984Z,101732.91
2023-04-03T01:06:34.914Z,101730.16
2023-04-03T01:08:36.733Z,101711.25
2023-04-03T01:10:38.250Z,101717.81
2023-04-03T01:12:46.965Z,101715.25
2023-04-03T01:14:54.731Z,101741.34
2023-04-03T01:16:56.165Z,101735.25
2023-04-03T01:18:58.433Z,101724.00
2023-04-03T01:21:17.694Z,101752.59
2023-04-03T01:23:30.892Z,101741.59
2023-04-03T01:25:32.982Z,101746.09
2023-04-03T01:27:34.585Z,101703.59
2023-04-03T01:29:36.220Z,101722.66
2023-04-03T01:31:49.567Z,101750.50
2023-04-03T01:33:51.342Z,101706.34
2023-04-03T01:35:52.885Z,101756.53
2023-04-03T01:37:54.300Z,101760.44
2023-04-03T01:39:55.824Z,101759.09
2023-04-03T01:41:57.220Z,101757.22
2023-04-03T01:43:58.676Z,101774.13
2023-04-03T01:46:00.243Z,101762.13
2023-04-03T01:48:01.791Z,101759.94
2023-04-03T01:50:03.644Z,101762.81
2023-04-03T01:52:05.173Z,101744.25
2023-04-03T01:54:06.646Z,101778.13
2023-04-03T01:56:08.257Z,101759.28
2023-04-03T01:58:09.735Z,101762.50
2023-04-03T02:00:11.597Z,101745.28
2023-04-03T02:02:13.011Z,101776.59
2023-04-03T02:04:14.561Z,101771.72
2023-04-03T02:06:16.013Z,101757.00
2023-04-03T02:08:17.607Z,101774.59
2023-04-03T02:10:19.246Z,101774.00
2023-04-03T02:12:20.648Z,101775.50
2023-04-03T02:14:22.063Z,101784.88
2023-04-03T02:16:23.842Z,101777.41
2023-04-03T02:18:25.946Z,101762.91
2023-04-03T02:20:27.358Z,101770.78
2023-04-03T02:22:29.289Z,101776.72
2023-04-03T02:24:30.935Z,101780.38
2023-04-03T02:26:32.391Z,101774.19
2023-04-03T02:28:34.422Z,101781.72
2023-04-03T02:30:36.138Z,101784.34
2023-04-03T02:32:37.883Z,101786.75
2023-04-03T02:34:39.572Z,101787.56
2023-04-03T02:36:41.079Z,101766.94
2023-04-03T02:38:42.858Z,101781.53
2023-04-03T02:40:44.516Z,101791.69
2023-04-03T02:42:46.007Z,101785.53
2023-04-03T02:44:47.435Z,101793.50
2023-04-03T02:46:49.096Z,101772.59
2023-04-03T02:48:50.484Z,101792.47
2023-04-03T02:50:52.197Z,101790.75
2023-04-03T02:52:53.666Z,101771.47
2023-04-03T02:54:55.072Z,101791.91
2023-04-03T02:56:56.785Z,101805.50
2023-04-03T02:58:58.292Z,101791.53
2023-04-03T03:01:00.774Z,101822.78
2023-04-03T03:03:02.472Z,101796.09
2023-04-03T03:05:04.416Z,101811.72
2023-04-03T03:07:05.950Z,101811.16
2023-04-03T03:09:07.410Z,101813.13
2023-04-03T03:11:09.776Z,101828.34
2023-04-03T03:13:11.182Z,101808.59
2023-04-03T03:15:13.288Z,101808.56
2023-04-03T03:17:14.906Z,101818.44
2023-04-03T03:19:16.577Z,101821.53
2023-04-03T03:21:18.008Z,101816.19
2023-04-03T03:23:19.771Z,101826.94
2023-04-03T03:25:21.180Z,101827.19
2023-04-03T03:27:22.794Z,101824.69
2023-04-03T03:29:24.375Z,101813.78
2023-04-03T03:31:25.828Z,101824.34
2023-04-03T03:33:27.431Z,101829.16
2023-04-03T03:35:28.837Z,101823.03
2023-04-03T03:37:30.239Z,101810.66
2023-04-03T03:39:31.634Z,101817.50
2023-04-03T03:41:33.385Z,101812.91
2023-04-03T03:43:34.800Z,101834.53
2023-04-03T03:45:36.422Z,101830.25
2023-04-03T03:47:38.310Z,101831.50
2023-04-03T03:49:39.795Z,101830.91
2023-04-03T03:51:41.311Z,101829.13
2023-04-03T03:53:43.207Z,101811.84
2023-04-03T03:55:44.640Z,101847.31
2023-04-03T03:57:46.106Z,101850.59
2023-04-03T03:59:47.802Z,101845.22
2023-04-03T04:01:49.241Z,101850.81
2023-04-03T04:03:50.883Z,101855.88
2023-04-03T04:05:52.628Z,101849.38
2023-04-03T04:07:54.080Z,101843.59
2023-04-03T04:09:55.837Z,101859.41
2023-04-03T04:11:57.429Z,101866.03
2023-04-03T04:13:58.857Z,101864.72
2023-04-03T04:16:00.544Z,101866.19
2023-04-03T04:18:02.088Z,101867.56
2023-04-03T04:20:04.795Z,101847.88
2023-04-03T04:22:06.475Z,101857.50
2023-04-03T04:24:09.666Z,101858.94
2023-04-03T04:26:11.200Z,101859.81
2023-04-03T04:28:13.153Z,101874.88
2023-04-03T04:30:15.243Z,101851.94
2023-04-03T04:32:16.678Z,101868.16
2023-04-03T04:34:18.173Z,101868.53
2023-04-03T04:36:20.168Z,101870.25
2023-04-03T04:38:21.644Z,101848.25
2023-04-03T04:40:23.402Z,101849.53
2023-04-03T04:42:25.604Z,101857.94
2023-04-03T04:44:27.030Z,101869.31
2023-04-03T04:46:28.801Z,101862.50
2023-04-03T04:48:32.608Z,101874.59
2023-04-03T04:50:34.505Z,101883.03
2023-04-03T04:52:36.147Z,101863.69
2023-04-03T04:54:37.703Z,101867.66
2023-04-03T04:56:39.118Z,101864.63
2023-04-03T04:58:40.656Z,101873.69
2023-04-03T05:00:42.328Z,101881.22
2023-04-03T05:02:43.985Z,101883.50
2023-04-03T05:04:45.655Z,101869.03
2023-04-03T05:06:47.400Z,101887.25
2023-04-03T05:08:48.832Z,101891.66
2023-04-03T05:10:50.521Z,101894.19
2023-04-03T05:12:52.109Z,101898.72
2023-04-03T05:14:53.630Z,101893.59
2023-04-03T05:16:55.435Z,101874.38
2023-04-03T05:18:56.972Z,101894.88
2023-04-03T05:20:58.350Z,101892.88
2023-04-03T05:22:59.818Z,101878.09
2023-04-03T05:25:01.501Z,101888.28
2023-04-03T05:27:02.913Z,101892.75
2023-04-03T05:29:04.827Z,101901.03
2023-04-03T05:31:06.352Z,101896.53
2023-04-03T05:33:07.905Z,101892.25
2023-04-03T05:35:09.872Z,101903.63
2023-04-03T05:37:11.737Z,101905.03
2023-04-03T05:39:13.369Z,101886.66
2023-04-03T05:41:16.402Z,101879.34
2023-04-03T05:43:17.876Z,101898.16
2023-04-03T05:45:19.265Z,101903.66
2023-04-03T05:47:20.753Z,101896.88
2023-04-03T05:49:22.403Z,101908.88
2023-04-03T05:51:26.374Z,101910.66
2023-04-03T05:53:30.280Z,101912.75
2023-04-03T05:55:31.876Z,101904.38
2023-04-03T05:57:33.668Z,101901.00
2023-04-03T05:59:35.300Z,101905.38
2023-04-03T06:01:37.025Z,101909.47
2023-04-03T06:03:40.131Z,101923.97
2023-04-03T06:05:42.159Z,101900.88
2023-04-03T06:07:43.738Z,101896.75
2023-04-03T06:09:45.143Z,101923.97
2023-04-03T06:11:46.730Z,101926.41
2023-04-03T06:13:48.235Z,101923.38
2023-04-03T06:15:49.683Z,101935.78
2023-04-03T06:17:51.195Z,101923.31
2023-04-03T06:19:52.746Z,101912.25
2023-04-03T06:21:54.244Z,101922.25
2023-04-03T06:23:55.811Z,101929.16
2023-04-03T06:25:57.412Z,101934.56
2023-04-03T06:27:58.804Z,101935.66
2023-04-03T06:30:00.386Z,101928.81
2023-04-03T06:32:02.050Z,101940.63
2023-04-03T06:34:04.426Z,101951.13
2023-04-03T06:36:06.705Z,101940.69
2023-04-03T06:38:08.209Z,101954.19
2023-04-03T06:40:19.365Z,101944.72
2023-04-03T06:42:20.954Z,101941.13
2023-04-03T06:44:22.637Z,101958.19
2023-04-03T06:46:24.986Z,101957.50
2023-04-03T06:48:26.686Z,101953.03
2023-04-03T06:50:28.366Z,101983.53
2023-04-03T06:52:29.834Z,101979.16
2023-04-03T06:54:31.418Z,101956.03
2023-04-03T06:56:33.868Z,101979.97
2023-04-03T06:58:35.346Z,101978.69
2023-04-03T07:00:36.928Z,101952.88
2023-04-03T07:02:38.848Z,101990.38
2023-04-03T07:04:40.539Z,101953.41
2023-04-03T07:06:42.137Z,101961.63
2023-04-03T07:08:44.427Z,101985.81
2023-04-03T07:10:45.829Z,101960.38
2023-04-03T07:12:47.808Z,101973.88
2023-04-03T07:14:49.299Z,101965.94
2023-04-03T07:16:50.698Z,101987.19
2023-04-03T07:18:52.270Z,101973.91
2023-04-03T07:20:54.056Z,101988.53
2023-04-03T07:22:55.451Z,101974.50
2023-04-03T07:24:57.064Z,101965.72
2023-04-03T07:26:58.697Z,101995.25
2023-04-03T07:29:00.143Z,101991.06
2023-04-03T07:31:07.948Z,101995.28
2023-04-03T07:33:09.593Z,102015.16
2023-04-03T07:35:13.981Z,101985.72
2023-04-03T07:37:15.626Z,101990.91
2023-04-03T07:39:17.167Z,102005.19
2023-04-03T07:41:20.314Z,101999.13
2023-04-03T07:43:23.403Z,101991.56
2023-04-03T07:45:25.529Z,101985.53
2023-04-03T07:47:27.024Z,102002.25
2023-04-03T07:49:28.518Z,102005.06
2023-04-03T07:51:30.094Z,101989.88
2023-04-03T07:53:32.247Z,101991.22
2023-04-03T07:55:35.132Z,102015.94
2023-04-03T07:57:37.001Z,102004.84
2023-04-03T07:59:38.449Z,102006.13
2023-04-03T08:01:40.085Z,101987.88
2023-04-03T08:03:41.885Z,101994.28
2023-04-03T08:05:45.487Z,102014.09
2023-04-03T08:07:47.239Z,101987.44
2023-04-03T08:09:48.934Z,102024.56
2023-04-03T08:11:50.336Z,101989.88
2023-04-03T08:13:52.555Z,101999.19
2023-04-03T08:15:55.230Z,102001.84
2023-04-03T08:17:56.748Z,102025.72
2023-04-03T08:19:58.372Z,101987.34
2023-04-03T08:21:59.863Z,102014.88
2023-04-03T08:24:01.260Z,102013.97
2023-04-03T08:26:10.957Z,101995.28
2023-04-03T08:28:13.052Z,102028.28
2023-04-03T08:30:15.011Z,102022.09
2023-04-03T08:32:16.603Z,102004.41
2023-04-03T08:34:18.684Z,102002.00
2023-04-03T08:36:21.497Z,102017.06
2023-04-03T08:38:23.007Z,102001.53
2023-04-03T08:40:25.236Z,102024.81
2023-04-03T08:42:29.566Z,102017.41
2023-04-03T08:44:56.663Z,102019.88
2023-04-03T08:47:16.200Z,102017.59
2023-04-03T08:49:54.437Z,102027.78
2023-04-03T08:51:57.837Z,102034.09
2023-04-03T08:54:06.291Z,102035.66
2023-04-03T08:56:10.594Z,102026.13
2023-04-03T08:58:22.555Z,102039.00
2023-04-03T09:00:27.769Z,102016.78
2023-04-03T09:02:40.911Z,102024.91
2023-04-03T09:04:42.379Z,102014.16
2023-04-03T09:06:51.168Z,102019.78
2023-04-03T09:09:20.127Z,102029.47
2023-04-03T09:11:21.579Z,102020.94
2023-04-03T09:13:30.550Z,102028.69
2023-04-03T09:15:39.041Z,102030.00
2023-04-03T09:18:12.201Z,102034.66
2023-04-03T09:20:59.066Z,102036.47
2023-04-03T09:23:00.522Z,102032.22
2023-04-03T09:25:22.147Z,102030.31
2023-04-03T09:27:23.877Z,102023.38
2023-04-03T09:29:25.596Z,102020.47
2023-04-03T09:31:48.853Z,102016.25
2023-04-03T09:33:53.881Z,102016.06
2023-04-03T09:35:55.332Z,102001.66
2023-04-03T09:38:02.575Z,102023.06
2023-04-03T09:40:04.488Z,102015.66
2023-04-03T09:42:16.697Z,102022.41
2023-04-03T09:44:27.514Z,102021.03
2023-04-03T09:46:34.409Z,102019.97
2023-04-03T09:48:35.834Z,102004.47
2023-04-03T09:50:37.733Z,102034.28
2023-04-03T09:52:40.514Z,102017.19
2023-04-03T09:54:42.250Z,101998.06
2023-04-03T09:56:51.341Z,102011.88
2023-04-03T09:58:52.950Z,102015.34
2023-04-03T10:00:56.539Z,102017.22
2023-04-03T10:02:58.355Z,102006.34
2023-04-03T10:05:09.470Z,102023.69
2023-04-03T10:07:36.523Z,102025.59
2023-04-03T10:09:37.911Z,102023.97
2023-04-03T10:11:57.863Z,102027.47
2023-04-03T10:14:03.280Z,102020.06
2023-04-03T10:16:10.095Z,102014.78
2023-04-03T10:18:40.850Z,102027.50
2023-04-03T10:20:49.846Z,102012.19
2023-04-03T10:23:13.399Z,102020.53
2023-04-03T10:25:49.148Z,102027.19
2023-04-03T10:27:56.375Z,102015.94
2023-04-03T10:30:32.206Z,102012.38
2023-04-03T10:32:58.953Z,102010.81
2023-04-03T10:35:37.746Z,102018.75
2023-04-03T10:38:02.561Z,102018.66
2023-04-03T10:40:23.930Z,102007.91
2023-04-03T10:42:47.782Z,102004.06
2023-04-03T10:44:49.330Z,101998.50
2023-04-03T10:46:54.184Z,101994.25
2023-04-03T10:49:06.784Z,101986.38
2023-04-03T10:51:31.061Z,102012.97
2023-04-03T10:53:47.115Z,102003.69
2023-04-03T10:55:51.147Z,102010.69
2023-04-03T10:57:57.158Z,101972.28
2023-04-03T11:00:08.564Z,101989.94
2023-04-03T11:02:22.833Z,101997.75
2023-04-03T11:04:28.419Z,101989.09
2023-04-03T11:06:38.712Z,101983.50
2023-04-03T11:08:45.266Z,101982.63
2023-04-03T11:10:51.588Z,101970.56
2023-04-03T11:13:00.541Z,101987.69
2023-04-03T11:15:03.549Z,101989.75
2023-04-03T11:17:17.065Z,101989.75
2023-04-03T11:19:22.109Z,101977.38
2023-04-03T11:21:35.843Z,101974.66
2023-04-03T11:23:49.016Z,101954.78
2023-04-03T11:25:54.797Z,101982.44
2023-04-03T11:28:06.836Z,101974.56
2023-04-03T11:30:17.152Z,101976.94
2023-04-03T11:32:37.103Z,101983.28
2023-04-03T11:34:43.471Z,101977.88
2023-04-03T11:36:53.434Z,101981.56
2023-04-03T11:39:02.498Z,101961.19
2023-04-03T11:41:07.149Z,101973.81
2023-04-03T11:43:29.806Z,101959.34
2023-04-03T11:45:36.476Z,101966.19
2023-04-03T11:47:48.089Z,101958.28
2023-04-03T11:49:55.942Z,101965.53
2023-04-03T11:51:57.414Z,101942.78
2023-04-03T11:54:45.151Z,101963.97
2023-04-03T11:56:47.155Z,101952.63
2023-04-03T11:59:06.764Z,101958.34
2023-04-03T12:01:32.387Z,101939.25
2023-04-03T12:03:58.101Z,101972.28
2023-04-03T12:06:05.342Z,101956.06
2023-04-03T12:08:30.984Z,101969.88
2023-04-03T12:10:33.025Z,101966.56
2023-04-03T12:12:40.143Z,101957.16
2023-04-03T12:14:41.643Z,101952.31
2023-04-03T12:16:45.459Z,101955.59
2023-04-03T12:18:49.819Z,101949.75
2023-04-03T12:20:56.856Z,101947.75
2023-04-03T12:23:28.453Z,101953.50
2023-04-03T12:25:51.004Z,101948.16
2023-04-03T12:27:53.040Z,101953.72
2023-04-03T12:30:07.157Z,101938.16
2023-04-03T12:32:11.734Z,101954.53
2023-04-03T12:34:26.086Z,101954.31
2023-04-03T12:36:44.642Z,101939.91
2023-04-03T12:39:26.641Z,101943.19
2023-04-03T12:41:37.082Z,101936.75
2023-04-03T12:44:00.282Z,101937.94
2023-04-03T12:46:10.524Z,101934.41
2023-04-03T12:48:18.312Z,101935.13
2023-04-03T12:50:25.020Z,101944.97
2023-04-03T12:52:45.064Z,101940.44
2023-04-03T12:54:48.422Z,101932.78
2023-04-03T12:56:50.057Z,101942.19
2023-04-03T12:58:53.607Z,101938.16
2023-04-03T13:01:10.623Z,101939.75
2023-04-03T13:03:25.512Z,101940.03
2023-04-03T13:05:27.204Z,101951.50
2023-04-03T13:07:34.490Z,101947.38
2023-04-03T13:09:36.753Z,101940.66
2023-04-03T13:11:42.756Z,101946.72
2023-04-03T13:14:16.688Z,101924.88
2023-04-03T13:16:18.685Z,101923.09
2023-04-03T13:18:26.474Z,101932.31
2023-04-03T13:20:29.313Z,101941.03
2023-04-03T13:22:37.187Z,101921.19
2023-04-03T13:24:40.029Z,101927.59
2023-04-03T13:26:42.178Z,101940.38
2023-04-03T13:28:45.501Z,101927.72
2023-04-03T13:31:07.019Z,101938.53
2023-04-03T13:33:25.056Z,101904.53
2023-04-03T13:35:37.545Z,101925.94
2023-04-03T13:37:38.991Z,101922.97
2023-04-03T13:42:01.914Z,101924.19
2023-04-03T13:44:21.688Z,101920.38
2023-04-03T13:46:27.984Z,101921.19
2023-04-03T13:48:46.255Z,101925.84
2023-04-03T13:51:19.356Z,101919.22
2023-04-03T13:53:21.286Z,101919.91
2023-04-03T13:55:26.173Z,101930.47
2023-04-03T13:57:28.949Z,101921.47
2023-04-03T13:59:36.607Z,101914.75
2023-04-03T14:01:46.089Z,101904.44
2023-04-03T14:03:59.351Z,101892.50
2023-04-03T14:06:01.576Z,101920.25
2023-04-03T14:08:03.333Z,101921.00
2023-04-03T14:10:05.468Z,101919.25
2023-04-03T14:12:30.308Z,101920.63
2023-04-03T14:14:35.358Z,101919.78
2023-04-03T14:16:40.848Z,101902.91
2023-04-03T14:18:42.401Z,101901.72
2023-04-03T14:20:44.729Z,101917.41
2023-04-03T14:22:46.258Z,101912.13
2023-04-03T14:24:47.956Z,101905.91
2023-04-03T14:26:52.091Z,101910.94
2023-04-03T14:28:55.516Z,101911.09
2023-04-03T14:30:56.935Z,101908.31
2023-04-03T14:32:59.427Z,101861.50
2023-04-03T14:35:01.076Z,101909.16
2023-04-03T14:37:02.560Z,101889.94
2023-04-03T14:39:05.222Z,101906.22
2023-04-03T14:41:16.166Z,101898.59
2023-04-03T14:43:18.547Z,101899.69
2023-04-03T14:45:20.077Z,101907.53
2023-04-03T14:47:31.139Z,101910.63
2023-04-03T14:49:33.542Z,101917.13
2023-04-03T14:51:35.166Z,101896.69
2023-04-03T14:53:39.217Z,101885.44
2023-04-03T14:55:46.005Z,101889.22
2023-04-03T14:57:47.702Z,101904.66
2023-04-03T14:59:49.189Z,101890.59
2023-04-03T15:01:50.796Z,101904.16
2023-04-03T15:03:52.506Z,101899.84
2023-04-03T15:05:54.063Z,101901.19
2023-04-03T15:07:57.014Z,101903.06
2023-04-03T15:09:58.615Z,101905.28
2023-04-03T15:12:00.124Z,101901.19
2023-04-03T15:14:01.546Z,101895.28
2023-04-03T15:16:03.642Z,101895.66
2023-04-03T15:18:05.809Z,101890.56
2023-04-03T15:20:15.713Z,101902.09
2023-04-03T15:22:20.196Z,101893.03
2023-04-03T15:24:21.784Z,101902.09
2023-04-03T15:26:23.241Z,101898.66
2023-04-03T15:28:37.352Z,101882.53
2023-04-03T15:30:40.280Z,101884.31
2023-04-03T15:32:41.910Z,101894.00
2023-04-03T15:34:43.521Z,101897.38
2023-04-03T15:36:44.975Z,101901.25
2023-04-03T15:38:46.530Z,101869.91
2023-04-03T15:40:48.225Z,101902.13
2023-04-03T15:42:50.982Z,101892.66
2023-04-03T15:44:53.885Z,101909.97
2023-04-03T15:46:55.377Z,101880.81
2023-04-03T15:48:56.889Z,101900.81
2023-04-03T15:50:59.217Z,101918.22
2023-04-03T15:53:01.599Z,101898.44
2023-04-03T15:55:03.611Z,101895.72
2023-04-03T15:57:05.072Z,101917.50
2023-04-03T15:59:06.758Z,101916.78
2023-04-03T16:01:11.322Z,101902.09
2023-04-03T16:03:20.601Z,101917.13
2023-04-03T16:05:22.814Z,101902.28
2023-04-03T16:07:24.801Z,101914.66
2023-04-03T16:09:27.050Z,101917.34
2023-04-03T16:11:28.619Z,101910.03
2023-04-03T16:13:30.203Z,101899.72
2023-04-03T16:15:32.827Z,101914.22
2023-04-03T16:17:36.961Z,101922.03
2023-04-03T16:19:38.568Z,101899.81
2023-04-03T16:21:39.984Z,101915.88
2023-04-03T16:23:42.636Z,101919.00
2023-04-03T16:25:44.138Z,101927.63
2023-04-03T16:27:45.645Z,101888.50
2023-04-03T16:29:47.252Z,101911.41
2023-04-03T16:31:48.998Z,101920.16
2023-04-03T16:33:50.530Z,101933.94
2023-04-03T16:35:52.233Z,101912.69
2023-04-03T16:37:53.836Z,101938.09
2023-04-03T16:39:55.232Z,101892.06
2023-04-03T16:41:56.781Z,101933.88
2023-04-03T16:43:58.325Z,101925.19
2023-04-03T16:45:59.947Z,101943.84
2023-04-03T16:48:01.407Z,101938.81
2023-04-03T16:50:03.631Z,101932.03
2023-04-03T16:52:05.682Z,101945.47
2023-04-03T16:54:07.256Z,101940.91
2023-04-03T16:56:08.819Z,101924.47
2023-04-03T16:58:10.243Z,101905.34
2023-04-03T17:00:12.360Z,101945.72
2023-04-03T17:02:13.853Z,101831.97
2023-04-03T17:04:15.425Z,101932.19
2023-04-03T17:06:19.191Z,101944.69
2023-04-03T17:08:20.699Z,101944.09
2023-04-03T17:10:22.200Z,101954.84
2023-04-03T17:12:24.040Z,101960.84
2023-04-03T17:14:25.586Z,101959.16
2023-04-03T17:16:28.324Z,101950.03
2023-04-03T17:18:29.964Z,101949.53
2023-04-03T17:20:31.451Z,101952.44
2023-04-03T17:22:33.251Z,101951.66
2023-04-03T17:24:35.393Z,101953.81
2023-04-03T17:26:36.874Z,101942.47
2023-04-03T17:28:38.416Z,101901.78
2023-04-03T17:30:40.106Z,101961.94
2023-04-03T17:32:41.712Z,101970.22
2023-04-03T17:34:43.374Z,101974.53
2023-04-03T17:36:45.565Z,101919.72
2023-04-03T17:38:47.238Z,101974.56
2023-04-03T17:40:48.652Z,101965.94
2023-04-03T17:42:50.688Z,101974.44
2023-04-03T17:44:52.207Z,101977.97
2023-04-03T17:46:53.984Z,101978.69
2023-04-03T17:48:56.409Z,101971.19
2023-04-03T17:50:57.976Z,101961.44
2023-04-03T17:52:59.430Z,101982.97
2023-04-03T17:55:01.009Z,101981.94
2023-04-03T17:57:02.552Z,101966.06
2023-04-03T17:59:04.095Z,101985.50
2023-04-03T18:01:18.348Z,101978.84
2023-04-03T18:03:19.874Z,101986.69
2023-04-03T18:05:21.330Z,101982.25
2023-04-03T18:07:23.176Z,101984.38
2023-04-03T18:09:28.871Z,101982.34
2023-04-03T18:11:31.093Z,101972.09
2023-04-03T18:13:32.898Z,101975.22
2023-04-03T18:15:34.638Z,101976.06
2023-04-03T18:17:36.144Z,101982.72
2023-04-03T18:19:38.021Z,101967.78
2023-04-03T18:21:39.601Z,101982.75
2023-04-03T18:23:46.990Z,101982.09
2023-04-03T18:25:48.521Z,101978.84
2023-04-03T18:27:50.168Z,101964.72
2023-04-03T18:29:57.706Z,101978.16
2023-04-03T18:32:02.333Z,101977.06
2023-04-03T18:34:04.024Z,101987.91
2023-04-03T18:36:05.725Z,101959.56
2023-04-03T18:38:07.282Z,101980.78
2023-04-03T18:40:09.654Z,101989.69
2023-04-03T18:42:18.608Z,101992.34
2023-04-03T18:44:22.554Z,101964.88
2023-04-03T18:46:24.186Z,101992.00
2023-04-03T18:48:25.632Z,101968.53
2023-04-03T18:50:27.235Z,101989.03
2023-04-03T18:52:28.838Z,101992.50
2023-04-03T18:54:30.307Z,101983.34
2023-04-03T18:56:32.500Z,102001.03
2023-04-03T18:58:34.054Z,101983.84
2023-04-03T19:00:35.621Z,101967.50
2023-04-03T19:02:37.262Z,101985.91
2023-04-03T19:04:38.971Z,101971.31
2023-04-03T19:06:40.459Z,101983.09
2023-04-03T19:08:42.214Z,101983.09
2023-04-03T19:10:43.753Z,101990.81
2023-04-03T19:12:48.966Z,101968.81
2023-04-03T19:14:50.569Z,101986.91
2023-04-03T19:16:52.267Z,101969.34
2023-04-03T19:18:53.918Z,101965.13
2023-04-03T19:20:56.830Z,101998.78
2023-04-03T19:22:58.490Z,102000.53
2023-04-03T19:24:59.939Z,101992.31
2023-04-03T19:27:01.521Z,101981.19
2023-04-03T19:29:03.379Z,101987.44
2023-04-03T19:31:13.293Z,101999.25
2023-04-03T19:33:14.934Z,102008.00
2023-04-03T19:35:16.441Z,102004.91
2023-04-03T19:37:18.175Z,102008.72
2023-04-03T19:39:19.722Z,102009.28
2023-04-03T19:41:25.590Z,101997.78
2023-04-03T19:43:27.888Z,102003.03
2023-04-03T19:45:29.452Z,101966.88
2023-04-03T19:47:30.940Z,102008.13
2023-04-03T19:49:32.423Z,102009.38
2023-04-03T19:51:33.914Z,102012.00
2023-04-03T19:53:35.460Z,102012.28
2023-04-03T19:55:37.523Z,102014.16
2023-04-03T19:57:39.067Z,102014.41
2023-04-03T19:59:40.545Z,101992.69
2023-04-03T20:01:42.442Z,102004.84
2023-04-03T20:03:43.969Z,102015.56
2023-04-03T20:05:46.015Z,101999.91
2023-04-03T20:07:47.465Z,102008.28
2023-04-03T20:09:49.016Z,102003.59
2023-04-03T20:11:51.883Z,102010.69
2023-04-03T20:13:54.937Z,101994.59
2023-04-03T20:15:56.544Z,102004.41
2023-04-03T20:17:58.211Z,101990.72
2023-04-03T20:19:59.913Z,101999.88
2023-04-03T20:22:01.804Z,102006.34
2023-04-03T20:24:06.256Z,102002.22
2023-04-03T20:26:15.668Z,102006.94
2023-04-03T20:28:18.557Z,102002.09
2023-04-03T20:30:20.193Z,102001.00
2023-04-03T20:32:21.663Z,101995.06
2023-04-03T20:34:23.320Z,102005.53
2023-04-03T20:36:25.221Z,101994.59
2023-04-03T20:38:26.713Z,102001.16
2023-04-03T20:40:28.142Z,102003.28
2023-04-03T20:42:29.663Z,102003.19
2023-04-03T20:44:31.263Z,102008.72
2023-04-03T20:46:49.206Z,101990.03
2023-04-03T20:48:54.375Z,101991.53
2023-04-03T20:50:56.007Z,101989.31
2023-04-03T20:52:57.608Z,101986.75
2023-04-03T20:54:58.992Z,102004.81
2023-04-03T20:57:00.529Z,102004.47
2023-04-03T20:59:02.539Z,102006.47
2023-04-03T21:01:12.055Z,102012.03
2023-04-03T21:03:13.580Z,101961.66
2023-04-03T21:05:16.706Z,102012.50
2023-04-03T21:07:55.712Z,102015.41
2023-04-03T21:10:34.950Z,102007.16
2023-04-03T21:13:13.982Z,102011.66
2023-04-03T21:15:46.827Z,102012.38
2023-04-03T21:18:23.253Z,102017.88
2023-04-03T21:20:24.665Z,102002.09
2023-04-03T21:22:26.168Z,101996.31
2023-04-03T21:24:28.222Z,102007.16
2023-04-03T21:26:29.692Z,102009.47
2023-04-03T21:28:31.224Z,101993.47
2023-04-03T21:30:32.731Z,102011.53
2023-04-03T21:32:34.155Z,101992.94
2023-04-03T21:34:35.638Z,101994.25
2023-04-03T21:36:40.536Z,101998.88
2023-04-03T21:38:42.051Z,101999.25
2023-04-03T21:40:43.531Z,102005.56
2023-04-03T21:42:45.000Z,102014.53
2023-04-03T21:44:46.405Z,102018.91
2023-04-03T21:46:48.366Z,102007.16
2023-04-03T21:48:51.127Z,102008.22
2023-04-03T21:50:52.545Z,102006.63
2023-04-03T21:52:54.173Z,102005.19
2023-04-03T21:54:55.762Z,102000.63
2023-04-03T21:56:57.177Z,102004.81
2023-04-03T21:59:01.450Z,102014.47
2023-04-03T22:01:13.433Z,102005.09
2023-04-03T22:03:21.020Z,101983.22
2023-04-03T22:05:22.748Z,101996.72
2023-04-03T22:07:24.382Z,102001.19
2023-04-03T22:09:25.931Z,101995.84
2023-04-03T22:11:27.418Z,102004.44
2023-04-03T22:13:29.195Z,101989.34
2023-04-03T22:15:30.583Z,102001.28
2023-04-03T22:17:32.201Z,101975.38
2023-04-03T22:19:33.711Z,101980.16
2023-04-03T22:21:35.115Z,101994.97
2023-04-03T22:23:36.773Z,101996.69
2023-04-03T22:25:38.277Z,101982.69
2023-04-03T22:27:40.356Z,101988.03
2023-04-03T22:29:42.044Z,101997.16
2023-04-03T22:31:43.522Z,102001.91
2023-04-03T22:33:45.500Z,101998.19
2023-04-03T22:35:48.455Z,101987.91
2023-04-03T22:37:50.755Z,101989.50
2023-04-03T22:39:52.133Z,101995.41
2023-04-03T22:41:53.601Z,101988.78
2023-04-03T22:43:57.090Z,101985.03
2023-04-03T22:46:01.117Z,101990.25
2023-04-03T22:48:02.709Z,101992.53
2023-04-03T22:50:04.435Z,101989.56
2023-04-03T22:52:05.841Z,101987.28
2023-04-03T22:54:07.524Z,101994.16
2023-04-03T22:56:08.940Z,101992.31
2023-04-03T22:58:10.434Z,101984.75
2023-04-03T23:00:12.528Z,101992.38
2023-04-03T23:02:14.213Z,101990.25
2023-04-03T23:04:15.690Z,101964.81
2023-04-03T23:06:17.148Z,101964.81
2023-04-03T23:08:19.537Z,101980.03
2023-04-03T23:10:21.737Z,101958.88
2023-04-03T23:12:23.356Z,101979.53
2023-04-03T23:14:24.753Z,101960.72
2023-04-03T23:16:26.205Z,101978.13
2023-04-03T23:18:29.429Z,101982.50
2023-04-03T23:20:31.136Z,101984.06
2023-04-03T23:22:32.918Z,101980.06
2023-04-03T23:24:34.624Z,101985.25
2023-04-03T23:26:36.182Z,101964.97
2023-04-03T23:28:37.600Z,101975.78
2023-04-03T23:30:39.470Z,101974.84
2023-04-03T23:32:40.935Z,101961.50
2023-04-03T23:34:42.418Z,101973.00
2023-04-03T23:36:44.002Z,101965.44
2023-04-03T23:38:45.463Z,101958.44
2023-04-03T23:40:46.862Z,101967.84
2023-04-03T23:42:48.433Z,101939.06
2023-04-03T23:44:49.820Z,101974.00